Time;durP1;ratioP1;P1;durP2;ratioP2;P2;SDS_P1;SDS_P2;PMS_P1;PMS_P2;Temp;Humidity;BMP_temperature;BMP_pressure;BME280_temperature;BME280_humidity;BME280_pressure;Samples;Min_cycle;Max_cycle;Signal;HPM_P1;HPM_P2
2022/11/07 00:00:07;;;;;;;;;;;;;;;;;;941102;27;20170;-78
2022/11/07 00:00:38;;;;;;;;;;;;;;;;;;941165;27;19922;-78
2022/11/07 00:01:09;;;;;;;;;;;;;;;;;;941076;27;19914;-77
2022/11/07 00:01:42;;;;;;;;;;;;;;;;;;941088;27;19957;-79
2022/11/07 00:02:14;;;;;;;;;;;;;;;;;;941024;27;19908;-78
2022/11/07 00:02:47;;;;;;;;;;;;;;;;;;941335;27;20159;-79
2022/11/07 00:03:20;;;;;;;;;;;;;;;;;;941655;27;19904;-79
2022/11/07 00:03:52;;;;;;;;;;;;;;;;;;941510;27;19903;-79
2022/11/07 00:04:23;;;;;;;;;;;;;;;;;;941620;27;20160;-79
2022/11/07 00:04:56;;;;;;;;;;;;;;;;;;941787;27;19922;-80
2022/11/07 00:05:27;;;;;;;;;;;;;;;;;;941625;27;19918;-79
2022/11/07 00:05:58;;;;;;;;;;;;;;;;;;941386;27;19914;-80
2022/11/07 00:06:28;;;;;;;;;;;;;;;;;;941494;27;19919;-78
2022/11/07 00:07:02;;;;;;;;;;;;;;;;;;941443;27;19965;-79
2022/11/07 00:07:32;;;;;;;;;;;;;;;;;;941520;27;19903;-80
2022/11/07 00:08:03;;;;;;;;;;;;;;;;;;941448;27;19914;-78
2022/11/07 00:08:37;;;;;;;;;;;;;;;;;;941483;27;19965;-79
2022/11/07 00:09:07;;;;;;;;;;;;;;;;;;941736;27;20248;-80
2022/11/07 00:09:38;;;;;;;;;;;;;;;;;;941676;27;19907;-79
2022/11/07 00:10:11;;;;;;;;;;;;;;;;;;941110;27;20224;-78
2022/11/07 00:10:42;;;;;;;;;;;;;;;;;;941038;27;19918;-79
2022/11/07 00:11:13;;;;;;;;;;;;;;;;;;940984;27;19915;-79
2022/11/07 00:11:43;;;;;;;;;;;;;;;;;;941215;27;19908;-78
2022/11/07 00:12:17;;;;;;;;;;;;;;;;;;941043;27;19908;-78
2022/11/07 00:12:47;;;;;;;;;;;;;;;;;;941051;27;19915;-78
2022/11/07 00:13:18;;;;;;;;;;;;;;;;;;941056;27;19915;-77
2022/11/07 00:13:51;;;;;;;;;;;;;;;;;;941088;27;19923;-77
2022/11/07 00:14:22;;;;;;;;;;;;;;;;;;941087;27;19918;-79
2022/11/07 00:14:53;;;;;;;;;;;;;;;;;;941095;27;19950;-78
2022/11/07 00:15:26;;;;;;;;;;;;;;;;;;940971;27;19911;-79
2022/11/07 00:15:57;;;;;;;;;;;;;;;;;;941132;27;19907;-80
2022/11/07 00:16:28;;;;;;;;;;;;;;;;;;941285;27;19964;-78
2022/11/07 00:17:01;;;;;;;;;;;;;;;;;;940993;27;19915;-78
2022/11/07 00:17:32;;;;;;;;;;;;;;;;;;941308;27;19903;-79
2022/11/07 00:18:02;;;;;;;;;;;;;;;;;;941242;27;19907;-79
2022/11/07 00:18:39;;;;;;;;;;;;;;;;;;941338;27;19908;-79
2022/11/07 00:19:09;;;;;;;;;;;;;;;;;;941135;27;19908;-79
2022/11/07 00:19:40;;;;;;;;;;;;;;;;;;941362;27;19918;-79
2022/11/07 00:20:14;;;;;;;;;;;;;;;;;;940896;27;19961;-79
2022/11/07 00:20:44;;;;;;;;;;;;;;;;;;941273;27;19907;-78
2022/11/07 00:21:15;;;;;;;;;;;;;;;;;;941255;27;19907;-78
2022/11/07 00:21:46;;;;;;;;;;;;;;;;;;941130;27;19903;-80
2022/11/07 00:22:19;;;;;;;;;;;;;;;;;;941309;27;19992;-79
2022/11/07 00:22:50;;;;;;;;;;;;;;;;;;941415;27;19911;-79
2022/11/07 00:23:21;;;;;;;;;;;;;;;;;;941416;27;19907;-80
2022/11/07 00:23:54;;;;;;;;;;;;;;;;;;941322;27;19915;-79
2022/11/07 00:24:25;;;;;;;;;;;;;;;;;;941104;27;19927;-80
2022/11/07 00:24:58;;;;;;;;;;;;;;;;;;941696;27;20212;-80
2022/11/07 00:25:28;;;;;;;;;;;;;;;;;;941509;27;19908;-78
2022/11/07 00:26:00;;;;;;;;;;;;;;;;;;941305;27;19903;-78
2022/11/07 00:26:34;;;;;;;;;;;;;;;;;;941345;27;19915;-79
2022/11/07 00:27:05;;;;;;;;;;;;;;;;;;941262;27;19903;-80
2022/11/07 00:27:38;;;;;;;;;;;;;;;;;;941425;27;20143;-80
2022/11/07 00:28:09;;;;;;;;;;;;;;;;;;941374;27;19903;-79
2022/11/07 00:28:41;;;;;;;;;;;;;;;;;;941479;27;19960;-80
2022/11/07 00:29:14;;;;;;;;;;;;;;;;;;941641;27;20545;-79
2022/11/07 00:29:45;;;;;;;;;;;;;;;;;;941422;27;19904;-79
2022/11/07 00:30:16;;;;;;;;;;;;;;;;;;941588;27;19915;-79
2022/11/07 00:30:49;;;;;;;;;;;;;;;;;;941508;27;19903;-85
2022/11/07 00:31:20;;;;;;;;;;;;;;;;;;941420;27;20004;-79
2022/11/07 00:31:50;;;;;;;;;;;;;;;;;;942010;27;20033;-79
2022/11/07 00:32:24;;;;;;;;;;;;;;;;;;941553;27;19907;-79
2022/11/07 00:32:54;;;;;;;;;;;;;;;;;;941604;27;19903;-79
2022/11/07 00:33:25;;;;;;;;;;;;;;;;;;941821;27;19908;-79
2022/11/07 00:34:01;;;;;;;;;;;;;;;;;;941725;27;19923;-80
2022/11/07 00:34:34;;;;;;;;;;;;;;;;;;941611;27;20216;-79
2022/11/07 00:35:07;;;;;;;;;;;;;;;;;;941444;27;19918;-78
2022/11/07 00:35:39;;;;;;;;;;;;;;;;;;941340;27;20128;-77
2022/11/07 00:36:15;;;;;;;;;;;;;;;;;;942296;27;20209;-78
2022/11/07 00:36:49;;;;;;;;;;;;;;;;;;941727;27;19904;-81
2022/11/07 00:37:19;;;;;;;;;;;;;;;;;;942152;27;19904;-78
2022/11/07 00:37:50;;;;;;;;;;;;;;;;;;942189;27;19907;-78
2022/11/07 00:38:20;;;;;;;;;;;;;;;;;;941609;27;19972;-79
2022/11/07 00:38:54;;;;;;;;;;;;;;;;;;941356;27;19915;-78
2022/11/07 00:39:25;;;;;;;;;;;;;;;;;;941521;27;19908;-78
2022/11/07 00:39:55;;;;;;;;;;;;;;;;;;941913;27;19907;-77
2022/11/07 00:40:28;;;;;;;;;;;;;;;;;;941591;27;20152;-80
2022/11/07 00:41:00;;;;;;;;;;;;;;;;;;941699;27;19911;-79
2022/11/07 00:41:31;;;;;;;;;;;;;;;;;;942011;27;20037;-79
2022/11/07 00:42:04;;;;;;;;;;;;;;;;;;941800;27;20213;-78
2022/11/07 00:42:35;;;;;;;;;;;;;;;;;;941960;27;19907;-78
2022/11/07 00:43:05;;;;;;;;;;;;;;;;;;941833;27;19907;-77
2022/11/07 00:43:39;;;;;;;;;;;;;;;;;;941994;27;19911;-80
2022/11/07 00:44:09;;;;;;;;;;;;;;;;;;941537;27;19914;-79
2022/11/07 00:44:40;;;;;;;;;;;;;;;;;;941500;27;19915;-79
2022/11/07 00:45:13;;;;;;;;;;;;;;;;;;941739;27;19915;-80
2022/11/07 00:45:44;;;;;;;;;;;;;;;;;;941928;27;19914;-78
2022/11/07 00:46:15;;;;;;;;;;;;;;;;;;941645;27;19907;-79
2022/11/07 00:46:48;;;;;;;;;;;;;;;;;;941472;27;19915;-79
2022/11/07 00:47:19;;;;;;;;;;;;;;;;;;941876;27;19938;-80
2022/11/07 00:47:50;;;;;;;;;;;;;;;;;;941458;27;20248;-79
2022/11/07 00:48:21;;;;;;;;;;;;;;;;;;942086;27;19956;-80
2022/11/07 00:48:55;;;;;;;;;;;;;;;;;;941322;27;20151;-79
2022/11/07 00:49:28;;;;;;;;;;;;;;;;;;941555;27;19904;-77
2022/11/07 00:49:59;;;;;;;;;;;;;;;;;;941824;27;19908;-79
2022/11/07 00:50:30;;;;;;;;;;;;;;;;;;941836;27;19912;-80
2022/11/07 00:51:07;;;;;;;;;;;;;;;;;;941805;27;20212;-79
2022/11/07 00:51:37;;;;;;;;;;;;;;;;;;941329;27;19955;-78
2022/11/07 00:52:11;;;;;;;;;;;;;;;;;;941806;27;19960;-79
2022/11/07 00:52:41;;;;;;;;;;;;;;;;;;941316;27;19907;-79
2022/11/07 00:53:12;;;;;;;;;;;;;;;;;;941172;27;19907;-80
2022/11/07 00:53:43;;;;;;;;;;;;;;;;;;941369;27;19961;-77
2022/11/07 00:54:16;;;;;;;;;;;;;;;;;;941389;27;19907;-78
2022/11/07 00:54:47;;;;;;;;;;;;;;;;;;941649;27;19908;-79
2022/11/07 00:55:17;;;;;;;;;;;;;;;;;;941127;27;20213;-80
2022/11/07 00:55:51;;;;;;;;;;;;;;;;;;941407;27;20432;-78
2022/11/07 00:56:23;;;;;;;;;;;;;;;;;;941521;27;19907;-78
2022/11/07 00:56:53;;;;;;;;;;;;;;;;;;941552;27;20537;-78
2022/11/07 00:57:26;;;;;;;;;;;;;;;;;;941103;27;19907;-77
2022/11/07 00:57:57;;;;;;;;;;;;;;;;;;941263;27;20216;-79
2022/11/07 00:58:28;;;;;;;;;;;;;;;;;;941653;27;19908;-78
2022/11/07 00:58:59;;;;;;;;;;;;;;;;;;941330;27;19968;-80
2022/11/07 00:59:32;;;;;;;;;;;;;;;;;;941095;27;19961;-79
2022/11/07 01:00:04;;;;;;;;;;;;;;;;;;941219;27;20160;-81
2022/11/07 01:00:35;;;;;;;;;;;;;;;;;;941872;27;19951;-76
2022/11/07 01:01:09;;;;;;;;;;;;;;;;;;941356;27;19911;-77
2022/11/07 01:01:39;;;;;;;;;;;;;;;;;;942184;27;19911;-81
2022/11/07 01:02:12;;;;;;;;;;;;;;;;;;941127;27;20240;-77
2022/11/07 01:02:43;;;;;;;;;;;;;;;;;;941252;27;19919;-80
2022/11/07 01:05:34;;;;;;;;;;;;;;;;;;941143;27;19904;-78
2022/11/07 01:06:08;;;;;;;;;;;;;;;;;;941355;27;19911;-79
2022/11/07 01:06:39;;;;;;;;;;;;;;;;;;941153;27;19908;-79
2022/11/07 01:07:10;;;;;;;;;;;;;;;;;;941388;27;19911;-79
2022/11/07 01:07:43;;;;;;;;;;;;;;;;;;941455;27;19959;-77
2022/11/07 01:08:14;;;;;;;;;;;;;;;;;;941646;27;19908;-79
2022/11/07 01:08:45;;;;;;;;;;;;;;;;;;941631;27;20209;-77
2022/11/07 01:09:20;;;;;;;;;;;;;;;;;;941105;27;19960;-78
2022/11/07 01:09:50;;;;;;;;;;;;;;;;;;941144;27;19903;-77
2022/11/07 01:10:21;;;;;;;;;;;;;;;;;;940917;27;19907;-78
2022/11/07 01:10:54;;;;;;;;;;;;;;;;;;941332;27;19907;-81
2022/11/07 01:11:26;;;;;;;;;;;;;;;;;;941196;27;19907;-76
2022/11/07 01:11:56;;;;;;;;;;;;;;;;;;941318;27;20205;-79
2022/11/07 01:12:30;;;;;;;;;;;;;;;;;;941142;27;19903;-77
2022/11/07 01:13:00;;;;;;;;;;;;;;;;;;941231;27;19908;-77
2022/11/07 01:13:31;;;;;;;;;;;;;;;;;;941364;27;19907;-77
2022/11/07 01:14:05;;;;;;;;;;;;;;;;;;941140;27;19915;-78
2022/11/07 01:14:36;;;;;;;;;;;;;;;;;;941134;27;19919;-77
2022/11/07 01:15:07;;;;;;;;;;;;;;;;;;941301;27;19954;-81
2022/11/07 01:15:39;;;;;;;;;;;;;;;;;;941176;27;19918;-78
2022/11/07 01:16:13;;;;;;;;;;;;;;;;;;941322;27;19907;-77
2022/11/07 01:16:44;;;;;;;;;;;;;;;;;;941406;27;19918;-79
2022/11/07 01:17:17;;;;;;;;;;;;;;;;;;941202;27;19918;-79
2022/11/07 01:17:48;;;;;;;;;;;;;;;;;;941639;27;19938;-80
2022/11/07 01:18:19;;;;;;;;;;;;;;;;;;941192;27;19911;-78
2022/11/07 01:18:52;;;;;;;;;;;;;;;;;;941488;27;19903;-78
2022/11/07 01:19:23;;;;;;;;;;;;;;;;;;940999;27;19911;-83
2022/11/07 01:19:56;;;;;;;;;;;;;;;;;;941082;27;20216;-79
2022/11/07 01:20:29;;;;;;;;;;;;;;;;;;941084;27;20221;-78
2022/11/07 01:21:02;;;;;;;;;;;;;;;;;;941458;27;19923;-79
2022/11/07 01:21:33;;;;;;;;;;;;;;;;;;941482;27;19907;-78
2022/11/07 01:22:06;;;;;;;;;;;;;;;;;;941504;27;19918;-78
2022/11/07 01:22:37;;;;;;;;;;;;;;;;;;941504;27;20244;-79
2022/11/07 01:23:08;;;;;;;;;;;;;;;;;;941239;27;20213;-79
2022/11/07 01:23:39;;;;;;;;;;;;;;;;;;941330;27;19915;-79
2022/11/07 01:24:13;;;;;;;;;;;;;;;;;;941592;27;20213;-78
2022/11/07 01:24:43;;;;;;;;;;;;;;;;;;941275;27;19911;-78
2022/11/07 01:25:14;;;;;;;;;;;;;;;;;;941059;27;20204;-77
2022/11/07 01:25:47;;;;;;;;;;;;;;;;;;941298;27;19907;-77
2022/11/07 01:26:18;;;;;;;;;;;;;;;;;;941281;27;19918;-75
2022/11/07 01:26:50;;;;;;;;;;;;;;;;;;941314;27;20160;-77
2022/11/07 01:27:23;;;;;;;;;;;;;;;;;;941510;27;19990;-76
2022/11/07 01:27:54;;;;;;;;;;;;;;;;;;941257;27;19907;-77
2022/11/07 01:28:25;;;;;;;;;;;;;;;;;;941251;27;20247;-76
2022/11/07 01:28:58;;;;;;;;;;;;;;;;;;941347;27;19908;-76
2022/11/07 01:29:29;;;;;;;;;;;;;;;;;;941128;27;20321;-76
2022/11/07 01:30:00;;;;;;;;;;;;;;;;;;941215;27;19923;-76
2022/11/07 01:30:33;;;;;;;;;;;;;;;;;;941311;27;20251;-77
2022/11/07 01:31:04;;;;;;;;;;;;;;;;;;941316;27;19907;-76
2022/11/07 01:31:35;;;;;;;;;;;;;;;;;;940713;27;19904;-78
2022/11/07 01:32:09;;;;;;;;;;;;;;;;;;940518;27;19911;-75
2022/11/07 01:32:39;;;;;;;;;;;;;;;;;;940904;27;19908;-77
2022/11/07 01:33:10;;;;;;;;;;;;;;;;;;941346;27;20125;-78
2022/11/07 01:33:41;;;;;;;;;;;;;;;;;;941230;27;19992;-76
2022/11/07 01:34:16;;;;;;;;;;;;;;;;;;941521;27;20264;-78
2022/11/07 01:34:47;;;;;;;;;;;;;;;;;;941566;27;19908;-77
2022/11/07 01:35:20;;;;;;;;;;;;;;;;;;941737;27;19907;-78
2022/11/07 01:35:51;;;;;;;;;;;;;;;;;;941641;27;19915;-78
2022/11/07 01:36:24;;;;;;;;;;;;;;;;;;941631;27;19911;-78
2022/11/07 01:36:54;;;;;;;;;;;;;;;;;;941643;27;19911;-78
2022/11/07 01:37:25;;;;;;;;;;;;;;;;;;941791;27;19903;-77
2022/11/07 01:37:58;;;;;;;;;;;;;;;;;;941789;27;20201;-77
2022/11/07 01:38:29;;;;;;;;;;;;;;;;;;941485;27;19903;-77
2022/11/07 01:39:00;;;;;;;;;;;;;;;;;;941480;27;19907;-77
2022/11/07 01:39:33;;;;;;;;;;;;;;;;;;941560;27;19961;-78
2022/11/07 01:40:04;;;;;;;;;;;;;;;;;;941376;27;19907;-76
2022/11/07 01:41:19;;;;;;;;;;;;;;;;;;941283;27;19911;-76
2022/11/07 01:41:34;;;;;;;;;;;;;;;;;;941260;27;19900;-78
2022/11/07 01:42:05;;;;;;;;;;;;;;;;;;941232;27;20160;-78
2022/11/07 01:42:36;;;;;;;;;;;;;;;;;;941565;27;19918;-76
2022/11/07 01:43:11;;;;;;;;;;;;;;;;;;941381;27;20224;-78
2022/11/07 01:43:42;;;;;;;;;;;;;;;;;;941250;27;19904;-76
2022/11/07 01:44:31;;;;;;;;;;;;;;;;;;941478;27;19918;-76
2022/11/07 01:45:02;;;;;;;;;;;;;;;;;;941249;27;19912;-77
2022/11/07 01:45:34;;;;;;;;;;;;;;;;;;941229;27;19903;-77
2022/11/07 01:46:07;;;;;;;;;;;;;;;;;;941339;27;20280;-78
2022/11/07 01:46:38;;;;;;;;;;;;;;;;;;941454;27;19920;-77
2022/11/07 01:47:13;;;;;;;;;;;;;;;;;;941519;27;19914;-77
2022/11/07 01:47:43;;;;;;;;;;;;;;;;;;941663;27;20247;-76
2022/11/07 01:48:14;;;;;;;;;;;;;;;;;;941682;27;19907;-77
2022/11/07 01:48:47;;;;;;;;;;;;;;;;;;941545;27;19953;-77
2022/11/07 01:49:22;;;;;;;;;;;;;;;;;;941500;27;19922;-78
2022/11/07 01:49:53;;;;;;;;;;;;;;;;;;941588;27;19912;-76
2022/11/07 01:50:27;;;;;;;;;;;;;;;;;;941523;27;19907;-77
2022/11/07 01:50:57;;;;;;;;;;;;;;;;;;941469;27;19904;-76
2022/11/07 01:51:32;;;;;;;;;;;;;;;;;;941667;27;19907;-78
2022/11/07 01:52:05;;;;;;;;;;;;;;;;;;942043;27;19914;-78
2022/11/07 01:52:37;;;;;;;;;;;;;;;;;;941833;27;19963;-78
2022/11/07 01:53:11;;;;;;;;;;;;;;;;;;942096;27;20173;-78
2022/11/07 01:53:41;;;;;;;;;;;;;;;;;;941952;27;19949;-77
2022/11/07 01:54:13;;;;;;;;;;;;;;;;;;941911;27;19942;-76
2022/11/07 01:54:50;;;;;;;;;;;;;;;;;;942086;27;19908;-77
2022/11/07 01:55:23;;;;;;;;;;;;;;;;;;941756;27;19945;-78
2022/11/07 01:55:54;;;;;;;;;;;;;;;;;;941718;27;19914;-78
2022/11/07 01:56:30;;;;;;;;;;;;;;;;;;941926;27;20207;-77
2022/11/07 01:57:03;;;;;;;;;;;;;;;;;;941812;27;19908;-77
2022/11/07 01:57:36;;;;;;;;;;;;;;;;;;941709;27;19956;-77
2022/11/07 01:58:10;;;;;;;;;;;;;;;;;;941912;27;19922;-77
2022/11/07 01:58:42;;;;;;;;;;;;;;;;;;941743;27;19903;-77
2022/11/07 01:59:16;;;;;;;;;;;;;;;;;;941931;27;20213;-77
2022/11/07 01:59:50;;;;;;;;;;;;;;;;;;942103;27;19935;-78
2022/11/07 02:00:21;;;;;;;;;;;;;;;;;;941687;27;19907;-78
2022/11/07 02:00:52;;;;;;;;;;;;;;;;;;941804;27;19907;-78
2022/11/07 02:01:25;;;;;;;;;;;;;;;;;;941945;27;20221;-78
2022/11/07 02:01:56;;;;;;;;;;;;;;;;;;941911;27;19919;-78
2022/11/07 02:02:28;;;;;;;;;;;;;;;;;;941959;27;19937;-77
2022/11/07 02:03:04;;;;;;;;;;;;;;;;;;941952;27;20109;-78
2022/11/07 02:03:34;;;;;;;;;;;;;;;;;;941836;27;19945;-78
2022/11/07 02:04:05;;;;;;;;;;;;;;;;;;941884;27;19969;-78
2022/11/07 02:04:39;;;;;;;;;;;;;;;;;;941776;27;19922;-78
2022/11/07 02:05:13;;;;;;;;;;;;;;;;;;942031;27;20208;-76
2022/11/07 02:05:51;;;;;;;;;;;;;;;;;;941804;27;19918;-77
2022/11/07 02:06:27;;;;;;;;;;;;;;;;;;941591;27;19935;-76
2022/11/07 02:07:00;;;;;;;;;;;;;;;;;;940790;27;19910;-78
2022/11/07 02:07:31;;;;;;;;;;;;;;;;;;941960;27;20252;-77
2022/11/07 02:08:06;;;;;;;;;;;;;;;;;;941937;27;20202;-77
2022/11/07 02:08:38;;;;;;;;;;;;;;;;;;942007;27;19903;-76
2022/11/07 02:09:09;;;;;;;;;;;;;;;;;;941800;27;19972;-76
2022/11/07 02:09:43;;;;;;;;;;;;;;;;;;942292;27;19984;-76
2022/11/07 02:10:14;;;;;;;;;;;;;;;;;;941881;27;19903;-77
2022/11/07 02:10:44;;;;;;;;;;;;;;;;;;941421;27;19907;-78
2022/11/07 02:11:19;;;;;;;;;;;;;;;;;;942135;27;20139;-78
2022/11/07 02:11:49;;;;;;;;;;;;;;;;;;942059;27;19945;-81
2022/11/07 02:12:22;;;;;;;;;;;;;;;;;;942060;27;19966;-78
2022/11/07 02:12:55;;;;;;;;;;;;;;;;;;941798;27;19922;-78
2022/11/07 02:13:27;;;;;;;;;;;;;;;;;;942286;27;19910;-78
2022/11/07 02:13:57;;;;;;;;;;;;;;;;;;941759;27;19908;-79
2022/11/07 02:14:31;;;;;;;;;;;;;;;;;;941818;27;19907;-77
2022/11/07 02:15:01;;;;;;;;;;;;;;;;;;941894;27;19903;-77
2022/11/07 02:15:33;;;;;;;;;;;;;;;;;;941538;27;19946;-77
2022/11/07 02:16:04;;;;;;;;;;;;;;;;;;941047;27;19907;-76
2022/11/07 02:16:37;;;;;;;;;;;;;;;;;;941024;27;19915;-76
2022/11/07 02:17:08;;;;;;;;;;;;;;;;;;940972;27;19931;-75
2022/11/07 02:17:39;;;;;;;;;;;;;;;;;;940960;27;19914;-77
2022/11/07 02:18:12;;;;;;;;;;;;;;;;;;940858;27;20242;-76
2022/11/07 02:18:44;;;;;;;;;;;;;;;;;;941360;27;19918;-76
2022/11/07 02:19:21;;;;;;;;;;;;;;;;;;941237;27;19915;-75
2022/11/07 02:19:52;;;;;;;;;;;;;;;;;;941277;27;19918;-76
2022/11/07 02:20:23;;;;;;;;;;;;;;;;;;941381;27;20479;-77
2022/11/07 02:21:02;;;;;;;;;;;;;;;;;;942050;27;19907;-78
2022/11/07 02:21:35;;;;;;;;;;;;;;;;;;942118;27;19908;-77
2022/11/07 02:22:14;;;;;;;;;;;;;;;;;;941790;27;19914;-79
2022/11/07 02:22:47;;;;;;;;;;;;;;;;;;941786;27;19931;-76
2022/11/07 02:23:21;;;;;;;;;;;;;;;;;;941672;27;19949;-78
2022/11/07 02:23:58;;;;;;;;;;;;;;;;;;941849;27;19919;-77
2022/11/07 02:24:34;;;;;;;;;;;;;;;;;;940809;27;19904;-75
2022/11/07 02:25:06;;;;;;;;;;;;;;;;;;940928;27;20209;-77
2022/11/07 02:25:39;;;;;;;;;;;;;;;;;;940811;27;20159;-76
2022/11/07 02:26:10;;;;;;;;;;;;;;;;;;940834;27;19907;-76
2022/11/07 02:26:41;;;;;;;;;;;;;;;;;;941062;27;19911;-77
2022/11/07 02:27:16;;;;;;;;;;;;;;;;;;940801;27;19918;-75
2022/11/07 02:27:48;;;;;;;;;;;;;;;;;;941079;27;19908;-77
2022/11/07 02:28:20;;;;;;;;;;;;;;;;;;941047;27;19954;-74
2022/11/07 02:28:52;;;;;;;;;;;;;;;;;;940939;27;20247;-77
2022/11/07 02:29:26;;;;;;;;;;;;;;;;;;940954;27;19915;-76
2022/11/07 02:29:59;;;;;;;;;;;;;;;;;;941016;27;19914;-76
2022/11/07 02:30:32;;;;;;;;;;;;;;;;;;940799;27;19919;-75
2022/11/07 02:31:06;;;;;;;;;;;;;;;;;;940913;27;19915;-74
2022/11/07 02:31:36;;;;;;;;;;;;;;;;;;940913;27;20225;-76
2022/11/07 02:32:08;;;;;;;;;;;;;;;;;;940991;27;19915;-76
2022/11/07 02:32:42;;;;;;;;;;;;;;;;;;940995;27;19928;-76
2022/11/07 02:33:16;;;;;;;;;;;;;;;;;;940984;27;19946;-76
2022/11/07 02:33:47;;;;;;;;;;;;;;;;;;940915;27;19907;-74
2022/11/07 02:34:20;;;;;;;;;;;;;;;;;;940650;27;19953;-77
2022/11/07 02:34:57;;;;;;;;;;;;;;;;;;941111;27;19908;-76
2022/11/07 02:35:31;;;;;;;;;;;;;;;;;;941034;27;19921;-76
2022/11/07 02:36:05;;;;;;;;;;;;;;;;;;940994;27;19907;-78
2022/11/07 02:36:36;;;;;;;;;;;;;;;;;;941252;27;19918;-77
2022/11/07 02:37:12;;;;;;;;;;;;;;;;;;941535;27;19915;-78
2022/11/07 02:37:45;;;;;;;;;;;;;;;;;;941489;27;19907;-76
2022/11/07 02:38:18;;;;;;;;;;;;;;;;;;941002;27;20152;-77
2022/11/07 02:38:56;;;;;;;;;;;;;;;;;;941108;27;19960;-77
2022/11/07 02:39:29;;;;;;;;;;;;;;;;;;941217;27;19907;-77
2022/11/07 02:40:05;;;;;;;;;;;;;;;;;;941163;27;19919;-77
2022/11/07 02:40:36;;;;;;;;;;;;;;;;;;941048;27;19907;-76
2022/11/07 02:41:12;;;;;;;;;;;;;;;;;;941176;27;19907;-76
2022/11/07 02:41:43;;;;;;;;;;;;;;;;;;940795;27;20306;-76
2022/11/07 02:42:14;;;;;;;;;;;;;;;;;;940978;27;19911;-76
2022/11/07 02:42:48;;;;;;;;;;;;;;;;;;940926;27;20238;-76
2022/11/07 02:43:21;;;;;;;;;;;;;;;;;;940579;27;19923;-78
2022/11/07 02:43:53;;;;;;;;;;;;;;;;;;940849;27;19988;-78
2022/11/07 02:44:27;;;;;;;;;;;;;;;;;;940884;27;20013;-79
2022/11/07 02:44:57;;;;;;;;;;;;;;;;;;940871;27;19911;-78
2022/11/07 02:45:30;;;;;;;;;;;;;;;;;;940955;27;20120;-78
2022/11/07 02:46:06;;;;;;;;;;;;;;;;;;940851;27;19912;-77
2022/11/07 02:46:37;;;;;;;;;;;;;;;;;;940948;27;20179;-79
2022/11/07 02:47:08;;;;;;;;;;;;;;;;;;940826;27;19907;-78
2022/11/07 02:47:41;;;;;;;;;;;;;;;;;;940831;27;19908;-78
2022/11/07 02:48:12;;;;;;;;;;;;;;;;;;940641;27;19918;-78
2022/11/07 02:48:44;;;;;;;;;;;;;;;;;;940956;27;19958;-79
2022/11/07 02:49:17;;;;;;;;;;;;;;;;;;940731;27;19923;-78
2022/11/07 02:49:48;;;;;;;;;;;;;;;;;;940824;27;20163;-79
2022/11/07 02:50:19;;;;;;;;;;;;;;;;;;940583;27;19911;-78
2022/11/07 02:50:52;;;;;;;;;;;;;;;;;;940781;27;19957;-76
2022/11/07 02:51:23;;;;;;;;;;;;;;;;;;940504;27;20180;-78
2022/11/07 02:51:53;;;;;;;;;;;;;;;;;;940759;27;19912;-77
2022/11/07 02:52:27;;;;;;;;;;;;;;;;;;940807;27;20293;-76
2022/11/07 02:52:57;;;;;;;;;;;;;;;;;;940690;27;19907;-77
2022/11/07 02:53:28;;;;;;;;;;;;;;;;;;940740;27;19919;-77
2022/11/07 02:54:01;;;;;;;;;;;;;;;;;;940723;27;19957;-77
2022/11/07 02:54:32;;;;;;;;;;;;;;;;;;940755;27;19907;-77
2022/11/07 02:55:06;;;;;;;;;;;;;;;;;;940519;27;19908;-77
2022/11/07 02:55:37;;;;;;;;;;;;;;;;;;940774;27;20148;-78
2022/11/07 02:56:11;;;;;;;;;;;;;;;;;;940699;27;19922;-77
2022/11/07 02:56:42;;;;;;;;;;;;;;;;;;940643;27;19914;-79
2022/11/07 02:57:12;;;;;;;;;;;;;;;;;;940725;27;19918;-78
2022/11/07 02:57:46;;;;;;;;;;;;;;;;;;940815;27;19957;-77
2022/11/07 02:58:16;;;;;;;;;;;;;;;;;;940690;27;19918;-78
2022/11/07 02:58:47;;;;;;;;;;;;;;;;;;940933;27;19911;-77
2022/11/07 02:59:20;;;;;;;;;;;;;;;;;;940741;27;19984;-76
2022/11/07 02:59:51;;;;;;;;;;;;;;;;;;940817;27;19903;-77
2022/11/07 03:00:21;;;;;;;;;;;;;;;;;;940688;27;20120;-79
2022/11/07 03:00:55;;;;;;;;;;;;;;;;;;940767;27;19907;-79
2022/11/07 03:01:25;;;;;;;;;;;;;;;;;;940738;27;19907;-78
2022/11/07 03:01:56;;;;;;;;;;;;;;;;;;940638;27;19907;-77
2022/11/07 03:02:29;;;;;;;;;;;;;;;;;;940834;27;19908;-78
2022/11/07 03:03:00;;;;;;;;;;;;;;;;;;940753;27;19908;-77
2022/11/07 03:03:31;;;;;;;;;;;;;;;;;;940740;27;19907;-78
2022/11/07 03:04:04;;;;;;;;;;;;;;;;;;940763;27;19955;-77
2022/11/07 03:04:34;;;;;;;;;;;;;;;;;;940829;27;19907;-77
2022/11/07 03:05:06;;;;;;;;;;;;;;;;;;940677;27;19918;-78
2022/11/07 03:05:39;;;;;;;;;;;;;;;;;;940671;27;19908;-78
2022/11/07 03:06:11;;;;;;;;;;;;;;;;;;940681;27;20398;-77
2022/11/07 03:06:41;;;;;;;;;;;;;;;;;;940701;27;19972;-78
2022/11/07 03:07:14;;;;;;;;;;;;;;;;;;940684;27;19916;-77
2022/11/07 03:07:46;;;;;;;;;;;;;;;;;;940634;27;19919;-77
2022/11/07 03:08:17;;;;;;;;;;;;;;;;;;940706;27;19967;-78
2022/11/07 03:08:50;;;;;;;;;;;;;;;;;;940859;27;19916;-77
2022/11/07 03:09:21;;;;;;;;;;;;;;;;;;940633;27;20109;-81
2022/11/07 03:09:51;;;;;;;;;;;;;;;;;;940796;27;20005;-77
2022/11/07 03:10:27;;;;;;;;;;;;;;;;;;940735;27;19961;-79
2022/11/07 03:10:58;;;;;;;;;;;;;;;;;;940591;27;19904;-77
2022/11/07 03:11:28;;;;;;;;;;;;;;;;;;940646;27;19915;-78
2022/11/07 03:12:02;;;;;;;;;;;;;;;;;;940788;27;19961;-79
2022/11/07 03:12:32;;;;;;;;;;;;;;;;;;940712;27;19907;-78
2022/11/07 03:13:03;;;;;;;;;;;;;;;;;;940698;27;19904;-77
2022/11/07 03:13:36;;;;;;;;;;;;;;;;;;940697;27;19959;-79
2022/11/07 03:14:07;;;;;;;;;;;;;;;;;;940679;27;20132;-77
2022/11/07 03:14:38;;;;;;;;;;;;;;;;;;940739;27;19904;-77
2022/11/07 03:15:09;;;;;;;;;;;;;;;;;;940769;27;19916;-77
2022/11/07 03:15:42;;;;;;;;;;;;;;;;;;940750;27;19915;-77
2022/11/07 03:16:13;;;;;;;;;;;;;;;;;;940670;27;19918;-76
2022/11/07 03:16:44;;;;;;;;;;;;;;;;;;940749;27;19919;-80
2022/11/07 03:17:17;;;;;;;;;;;;;;;;;;940758;27;20150;-78
2022/11/07 03:17:48;;;;;;;;;;;;;;;;;;940858;27;19907;-78
2022/11/07 03:18:21;;;;;;;;;;;;;;;;;;940451;27;20277;-77
2022/11/07 03:18:52;;;;;;;;;;;;;;;;;;940788;27;20244;-80
2022/11/07 03:19:25;;;;;;;;;;;;;;;;;;940707;27;19922;-77
2022/11/07 03:19:56;;;;;;;;;;;;;;;;;;940614;27;20213;-79
2022/11/07 03:20:27;;;;;;;;;;;;;;;;;;940642;27;19915;-77
2022/11/07 03:20:57;;;;;;;;;;;;;;;;;;940739;27;20205;-79
2022/11/07 03:21:30;;;;;;;;;;;;;;;;;;940796;27;20296;-78
2022/11/07 03:22:02;;;;;;;;;;;;;;;;;;940885;27;20151;-76
2022/11/07 03:22:33;;;;;;;;;;;;;;;;;;940740;27;19908;-78
2022/11/07 03:23:06;;;;;;;;;;;;;;;;;;940766;27;19908;-78
2022/11/07 03:23:36;;;;;;;;;;;;;;;;;;940772;27;19907;-77
2022/11/07 03:24:10;;;;;;;;;;;;;;;;;;940765;27;19918;-78
2022/11/07 03:24:40;;;;;;;;;;;;;;;;;;940875;27;19922;-78
2022/11/07 03:25:11;;;;;;;;;;;;;;;;;;940598;27;19923;-77
2022/11/07 03:25:47;;;;;;;;;;;;;;;;;;940788;27;20143;-77
2022/11/07 03:26:18;;;;;;;;;;;;;;;;;;940623;27;19918;-77
2022/11/07 03:26:49;;;;;;;;;;;;;;;;;;940750;27;19967;-77
2022/11/07 03:27:23;;;;;;;;;;;;;;;;;;940745;27;19916;-79
2022/11/07 03:27:53;;;;;;;;;;;;;;;;;;940846;27;19912;-78
2022/11/07 03:28:27;;;;;;;;;;;;;;;;;;940752;27;20212;-78
2022/11/07 03:28:58;;;;;;;;;;;;;;;;;;940758;27;19997;-77
2022/11/07 03:29:28;;;;;;;;;;;;;;;;;;940760;27;19911;-79
2022/11/07 03:29:59;;;;;;;;;;;;;;;;;;940838;27;19907;-78
2022/11/07 03:30:32;;;;;;;;;;;;;;;;;;940741;27;19907;-79
2022/11/07 03:31:03;;;;;;;;;;;;;;;;;;940887;27;19950;-78
2022/11/07 03:31:34;;;;;;;;;;;;;;;;;;940727;27;20217;-79
2022/11/07 03:32:08;;;;;;;;;;;;;;;;;;940861;27;19911;-78
2022/11/07 03:32:38;;;;;;;;;;;;;;;;;;940574;27;19918;-78
2022/11/07 03:33:09;;;;;;;;;;;;;;;;;;940918;27;20251;-79
2022/11/07 03:33:42;;;;;;;;;;;;;;;;;;940736;27;19918;-79
2022/11/07 03:34:13;;;;;;;;;;;;;;;;;;940891;27;19918;-79
2022/11/07 03:34:43;;;;;;;;;;;;;;;;;;940716;27;19903;-78
2022/11/07 03:35:14;;;;;;;;;;;;;;;;;;940751;27;19915;-78
2022/11/07 03:35:47;;;;;;;;;;;;;;;;;;940724;27;19916;-78
2022/11/07 03:36:18;;;;;;;;;;;;;;;;;;940684;27;20205;-78
2022/11/07 03:36:49;;;;;;;;;;;;;;;;;;940707;27;19907;-78
2022/11/07 03:37:22;;;;;;;;;;;;;;;;;;940709;27;19930;-78
2022/11/07 03:37:53;;;;;;;;;;;;;;;;;;940704;27;20160;-78
2022/11/07 03:38:23;;;;;;;;;;;;;;;;;;940624;27;19918;-77
2022/11/07 03:38:57;;;;;;;;;;;;;;;;;;940621;27;19915;-79
2022/11/07 03:39:27;;;;;;;;;;;;;;;;;;940697;27;19911;-78
2022/11/07 03:39:58;;;;;;;;;;;;;;;;;;940582;27;20201;-78
2022/11/07 03:40:31;;;;;;;;;;;;;;;;;;940778;27;20208;-78
2022/11/07 03:41:07;;;;;;;;;;;;;;;;;;940648;27;19914;-78
2022/11/07 03:41:37;;;;;;;;;;;;;;;;;;940686;27;19922;-78
2022/11/07 03:42:11;;;;;;;;;;;;;;;;;;940736;27;20260;-77
2022/11/07 03:42:42;;;;;;;;;;;;;;;;;;940600;27;20191;-78
2022/11/07 03:43:13;;;;;;;;;;;;;;;;;;940742;27;20317;-78
2022/11/07 03:43:46;;;;;;;;;;;;;;;;;;940679;27;19961;-78
2022/11/07 03:44:17;;;;;;;;;;;;;;;;;;940672;27;19934;-79
2022/11/07 03:44:48;;;;;;;;;;;;;;;;;;940542;27;19923;-77
2022/11/07 03:45:21;;;;;;;;;;;;;;;;;;940770;27;19915;-78
2022/11/07 03:45:51;;;;;;;;;;;;;;;;;;940690;27;19914;-77